Time;durP1;ratioP1;P1;durP2;ratioP2;P2;SDS_P1;SDS_P2;PMS_P1;PMS_P2;Temp;Humidity;BMP_temperature;BMP_pressure;BME280_temperature;BME280_humidity;BME280_pressure;Samples;Min_cycle;Max_cycle;Signal;HPM_P1;HPM_P2
2022/12/03 00:02:26;;;;;;;53.40;28.13;;;;;;;;;;5046029;28;20213;-64
2022/12/03 00:04:54;;;;;;;37.80;19.90;;;;;;;;;;5027337;28;20253;-64
2022/12/03 00:07:21;;;;;;;33.10;18.00;;;;;;;;;;5030262;28;20287;-64
2022/12/03 00:09:49;;;;;;;30.57;17.53;;;;;;;;;;5023966;28;20201;-64
2022/12/03 00:12:16;;;;;;;36.90;19.13;;;;;;;;;;5028384;28;20286;-64
2022/12/03 00:14:43;;;;;;;36.10;18.77;;;;;;;;;;5023227;28;20641;-64
2022/12/03 00:17:11;;;;;;;31.73;17.30;;;;;;;;;;5048658;28;20251;-63
2022/12/03 00:19:39;;;;;;;32.27;18.43;;;;;;;;;;5041425;28;20213;-63
2022/12/03 00:22:06;;;;;;;35.00;19.60;;;;;;;;;;5025549;28;20628;-64
2022/12/03 00:24:34;;;;;;;39.23;19.90;;;;;;;;;;5044361;28;21200;-64
2022/12/03 00:27:01;;;;;;;31.07;17.00;;;;;;;;;;5041289;28;20721;-63
2022/12/03 00:29:29;;;;;;;33.27;18.10;;;;;;;;;;5025497;28;20367;-63
2022/12/03 00:31:57;;;;;;;29.83;16.73;;;;;;;;;;5020698;28;20335;-64
2022/12/03 00:34:25;;;;;;;31.40;17.90;;;;;;;;;;5029833;28;20308;-63
2022/12/03 00:36:52;;;;;;;33.17;18.70;;;;;;;;;;5021938;28;20275;-64
2022/12/03 00:39:19;;;;;;;35.53;19.40;;;;;;;;;;5023921;28;20216;-64
2022/12/03 00:41:47;;;;;;;33.47;19.13;;;;;;;;;;5027736;28;20212;-64
2022/12/03 00:44:14;;;;;;;32.43;18.40;;;;;;;;;;5028281;28;20229;-65
2022/12/03 00:46:42;;;;;;;34.43;19.57;;;;;;;;;;5049889;28;20311;-63
2022/12/03 00:49:09;;;;;;;32.63;18.87;;;;;;;;;;5060835;28;20201;-62
2022/12/03 00:51:36;;;;;;;35.27;19.67;;;;;;;;;;5041070;28;20624;-63
2022/12/03 00:54:04;;;;;;;35.37;19.97;;;;;;;;;;5054648;28;20729;-65
2022/12/03 00:56:31;;;;;;;32.43;18.77;;;;;;;;;;5063996;28;20211;-64
2022/12/03 00:58:59;;;;;;;37.53;20.37;;;;;;;;;;5047223;28;20621;-63
2022/12/03 01:01:26;;;;;;;37.90;20.93;;;;;;;;;;5041360;28;20728;-63
2022/12/03 01:03:54;;;;;;;34.53;19.00;;;;;;;;;;5047184;28;20784;-63
2022/12/03 01:06:21;;;;;;;30.33;18.10;;;;;;;;;;5049273;28;20241;-63
2022/12/03 01:08:48;;;;;;;34.33;19.57;;;;;;;;;;5063951;28;20220;-64
2022/12/03 01:14:02;;;;;;;38.47;20.77;;;;;;;;;;5066005;28;20263;-62
2022/12/03 01:16:29;;;;;;;35.37;19.63;;;;;;;;;;5030580;28;20205;-63
2022/12/03 01:18:56;;;;;;;38.57;20.50;;;;;;;;;;5046564;28;20246;-62
2022/12/03 01:21:24;;;;;;;36.37;20.30;;;;;;;;;;5045756;28;20224;-62
2022/12/03 01:23:51;;;;;;;35.67;20.17;;;;;;;;;;5044477;28;20262;-64
2022/12/03 01:26:19;;;;;;;35.60;19.77;;;;;;;;;;5044040;28;20234;-64
2022/12/03 01:28:46;;;;;;;35.53;20.23;;;;;;;;;;5028229;28;20305;-62
2022/12/03 01:33:59;;;;;;;37.43;20.73;;;;;;;;;;5039723;28;20234;-63
2022/12/03 01:36:26;;;;;;;34.57;19.87;;;;;;;;;;5024723;28;20332;-63
2022/12/03 01:38:54;;;;;;;33.13;18.57;;;;;;;;;;5030369;28;20229;-63
2022/12/03 01:41:24;;;;;;;29.70;17.17;;;;;;;;;;5025963;28;20194;-63
2022/12/03 01:43:52;;;;;;;30.20;17.63;;;;;;;;;;5020446;28;20312;-63
2022/12/03 01:46:21;;;;;;;31.27;17.93;;;;;;;;;;5045169;28;20213;-63
2022/12/03 01:48:50;;;;;;;34.50;19.20;;;;;;;;;;5037840;28;20809;-63
2022/12/03 01:51:18;;;;;;;31.50;19.00;;;;;;;;;;5043913;28;20300;-63
2022/12/03 01:53:45;;;;;;;34.60;18.90;;;;;;;;;;5027711;28;20249;-64
2022/12/03 01:56:16;;;;;;;29.27;18.37;;;;;;;;;;5050125;28;20292;-63
2022/12/03 01:58:45;;;;;;;33.43;18.70;;;;;;;;;;5039356;28;20292;-63
2022/12/03 02:01:13;;;;;;;30.53;17.47;;;;;;;;;;5029783;28;20315;-63
2022/12/03 02:03:41;;;;;;;29.30;17.63;;;;;;;;;;5030589;28;20253;-63
2022/12/03 02:06:13;;;;;;;31.17;17.57;;;;;;;;;;5026430;28;20263;-63
2022/12/03 02:08:41;;;;;;;30.63;17.40;;;;;;;;;;5019869;28;20376;-63
2022/12/03 02:11:17;;;;;;;28.30;17.33;;;;;;;;;;5028467;28;20770;-63
2022/12/03 02:13:45;;;;;;;31.03;18.93;;;;;;;;;;5018372;28;20315;-64
2022/12/03 02:16:14;;;;;;;35.47;19.33;;;;;;;;;;5026889;28;20206;-62
2022/12/03 02:18:41;;;;;;;38.77;20.87;;;;;;;;;;5051236;28;20667;-63
2022/12/03 02:21:24;;;;;;;38.83;19.57;;;;;;;;;;5046163;28;20229;-64
2022/12/03 02:24:02;;;;;;;35.00;19.43;;;;;;;;;;5028671;28;20325;-61
2022/12/03 02:26:30;;;;;;;30.10;16.43;;;;;;;;;;5021692;28;20212;-62
2022/12/03 02:28:57;;;;;;;31.67;17.27;;;;;;;;;;5037281;28;20940;-64
2022/12/03 02:31:25;;;;;;;33.30;17.83;;;;;;;;;;5024906;28;20629;-64
2022/12/03 02:33:53;;;;;;;30.07;17.93;;;;;;;;;;5027614;28;20248;-63
2022/12/03 02:36:20;;;;;;;35.83;19.03;;;;;;;;;;5026771;28;20233;-64
2022/12/03 02:38:49;;;;;;;30.97;18.33;;;;;;;;;;5036575;28;20332;-62
2022/12/03 02:44:05;;;;;;;33.63;18.37;;;;;;;;;;5049155;28;20307;-61
2022/12/03 02:46:32;;;;;;;34.63;18.37;;;;;;;;;;5034988;28;20339;-63
2022/12/03 02:49:00;;;;;;;34.33;18.37;;;;;;;;;;5044993;28;20584;-61
2022/12/03 02:51:28;;;;;;;41.33;20.67;;;;;;;;;;5023628;28;20208;-64
2022/12/03 02:53:56;;;;;;;40.33;21.70;;;;;;;;;;5037273;28;20695;-61
2022/12/03 02:56:26;;;;;;;42.67;21.83;;;;;;;;;;5025229;28;20216;-63
2022/12/03 02:58:55;;;;;;;41.90;21.63;;;;;;;;;;5024785;28;20296;-62
2022/12/03 03:01:23;;;;;;;44.47;22.07;;;;;;;;;;5046681;28;20249;-62
2022/12/03 03:03:51;;;;;;;30.10;17.53;;;;;;;;;;5039500;28;21828;-63
2022/12/03 03:06:19;;;;;;;34.43;20.10;;;;;;;;;;5022788;28;20429;-62
2022/12/03 03:08:46;;;;;;;29.93;16.97;;;;;;;;;;5025661;28;20230;-62
2022/12/03 03:11:14;;;;;;;28.77;17.30;;;;;;;;;;5027458;28;20210;-63
2022/12/03 03:13:41;;;;;;;24.33;15.37;;;;;;;;;;5030382;28;20224;-61
2022/12/03 03:16:09;;;;;;;24.33;14.90;;;;;;;;;;5028030;28;20273;-63
2022/12/03 03:18:36;;;;;;;24.27;14.87;;;;;;;;;;5051120;28;20210;-63
2022/12/03 03:21:04;;;;;;;26.73;15.43;;;;;;;;;;5053143;28;20300;-62
2022/12/03 03:23:32;;;;;;;26.60;16.20;;;;;;;;;;5041222;28;20222;-65
2022/12/03 03:25:59;;;;;;;26.10;16.20;;;;;;;;;;5053885;28;20229;-62
2022/12/03 03:28:28;;;;;;;27.10;15.73;;;;;;;;;;5036137;28;20324;-62
2022/12/03 03:30:56;;;;;;;29.47;17.43;;;;;;;;;;5044926;28;20663;-62
2022/12/03 03:33:24;;;;;;;27.30;17.20;;;;;;;;;;5025534;28;20553;-63
2022/12/03 03:35:52;;;;;;;30.07;17.90;;;;;;;;;;5028959;28;20201;-61
2022/12/03 03:38:20;;;;;;;28.53;16.43;;;;;;;;;;5025481;28;20521;-62
2022/12/03 03:40:50;;;;;;;27.00;16.57;;;;;;;;;;5023774;28;20218;-63
2022/12/03 03:43:17;;;;;;;29.83;17.10;;;;;;;;;;5024885;28;20332;-62
2022/12/03 03:45:45;;;;;;;30.33;16.67;;;;;;;;;;5025633;28;20213;-62
2022/12/03 03:48:13;;;;;;;31.03;18.30;;;;;;;;;;5024991;28;20233;-64
2022/12/03 03:50:41;;;;;;;34.33;18.17;;;;;;;;;;5023389;28;20276;-63
2022/12/03 03:53:09;;;;;;;35.07;18.80;;;;;;;;;;5026299;28;20229;-62
2022/12/03 03:55:37;;;;;;;35.33;18.70;;;;;;;;;;5043476;28;20330;-63
2022/12/03 03:58:05;;;;;;;36.30;19.40;;;;;;;;;;5021888;28;20206;-62
2022/12/03 04:00:33;;;;;;;36.60;19.90;;;;;;;;;;5027214;28;20654;-63
2022/12/03 04:03:02;;;;;;;34.57;19.70;;;;;;;;;;5044753;28;20320;-62
2022/12/03 04:05:30;;;;;;;35.53;19.67;;;;;;;;;;5030174;28;20205;-63
2022/12/03 04:07:58;;;;;;;38.63;18.83;;;;;;;;;;5020718;28;20221;-66
2022/12/03 04:13:12;;;;;;;35.53;18.77;;;;;;;;;;5042367;28;20295;-64
2022/12/03 04:15:39;;;;;;;31.83;19.67;;;;;;;;;;5022932;28;20206;-64
2022/12/03 04:22:38;;;;;;;36.20;19.63;;;;;;;;;;5040936;28;20567;-64
2022/12/03 04:23:43;;;;;;;40.93;20.70;;;;;;;;;;5060983;28;20668;-62
2022/12/03 04:28:56;;;;;;;35.80;19.93;;;;;;;;;;5067764;28;20256;-63
2022/12/03 04:37:02;;;;;;;36.87;19.23;;;;;;;;;;5040458;28;20255;-62
2022/12/03 04:39:29;;;;;;;34.23;18.63;;;;;;;;;;5043593;28;20671;-63
2022/12/03 04:41:56;;;;;;;35.83;21.50;;;;;;;;;;5019698;28;20221;-63
2022/12/03 04:44:35;;;;;;;32.97;20.40;;;;;;;;;;5024614;28;20379;-62
2022/12/03 04:47:05;;;;;;;37.30;20.23;;;;;;;;;;5024998;28;20254;-63
2022/12/03 04:49:33;;;;;;;38.90;19.83;;;;;;;;;;5016939;28;21059;-63
2022/12/03 04:52:01;;;;;;;42.00;20.03;;;;;;;;;;5041332;28;20721;-63
2022/12/03 04:54:28;;;;;;;36.67;20.10;;;;;;;;;;5036543;28;23387;-64
2022/12/03 04:56:56;;;;;;;39.63;20.40;;;;;;;;;;5020980;28;20206;-63
2022/12/03 04:59:23;;;;;;;39.67;21.13;;;;;;;;;;5021678;28;21046;-62
2022/12/03 05:01:50;;;;;;;32.83;19.37;;;;;;;;;;5025668;28;20241;-63
2022/12/03 05:04:18;;;;;;;39.23;20.50;;;;;;;;;;5019607;28;24305;-64
2022/12/03 05:06:46;;;;;;;37.83;19.97;;;;;;;;;;5023978;28;20245;-63
2022/12/03 05:09:13;;;;;;;43.97;21.43;;;;;;;;;;5041510;28;20623;-63
2022/12/03 05:11:40;;;;;;;40.13;20.00;;;;;;;;;;5021874;28;20592;-63
2022/12/03 05:14:08;;;;;;;39.63;21.10;;;;;;;;;;5030045;28;20876;-63
2022/12/03 05:16:36;;;;;;;39.00;20.87;;;;;;;;;;5037074;28;20198;-64
2022/12/03 05:19:05;;;;;;;34.73;18.83;;;;;;;;;;5053171;28;20312;-64
2022/12/03 05:21:32;;;;;;;34.00;19.00;;;;;;;;;;5057341;28;20292;-64
2022/12/03 05:23:59;;;;;;;31.67;18.33;;;;;;;;;;5044826;28;20319;-63
2022/12/03 05:26:27;;;;;;;34.83;18.77;;;;;;;;;;5052206;28;20258;-64
2022/12/03 05:28:54;;;;;;;39.33;19.47;;;;;;;;;;5027946;28;20344;-64
2022/12/03 05:31:22;;;;;;;36.00;19.80;;;;;;;;;;5033546;28;20313;-62
2022/12/03 05:33:49;;;;;;;34.87;18.33;;;;;;;;;;5027620;28;20225;-61
2022/12/03 05:36:17;;;;;;;35.17;19.47;;;;;;;;;;5030540;28;20783;-63
2022/12/03 05:38:44;;;;;;;33.27;18.53;;;;;;;;;;5021834;28;20928;-63
2022/12/03 05:43:57;;;;;;;35.47;19.07;;;;;;;;;;5048674;28;20345;-63
2022/12/03 05:46:25;;;;;;;32.07;18.50;;;;;;;;;;5025496;28;20213;-63
2022/12/03 05:48:52;;;;;;;32.63;18.53;;;;;;;;;;5042394;28;20333;-63
2022/12/03 05:51:20;;;;;;;35.63;18.83;;;;;;;;;;5016911;28;20352;-63
2022/12/03 05:53:47;;;;;;;31.10;18.27;;;;;;;;;;5025478;28;20226;-61
2022/12/03 05:56:15;;;;;;;39.97;22.30;;;;;;;;;;5021158;28;20207;-63
2022/12/03 05:58:42;;;;;;;39.83;21.67;;;;;;;;;;5045299;28;20209;-63
2022/12/03 06:01:09;;;;;;;37.13;19.57;;;;;;;;;;5020354;28;20300;-62
2022/12/03 06:03:37;;;;;;;41.73;21.50;;;;;;;;;;5024075;28;20227;-64
2022/12/03 06:06:04;;;;;;;38.00;20.93;;;;;;;;;;5022368;28;20919;-64
2022/12/03 06:08:32;;;;;;;42.27;21.13;;;;;;;;;;5026038;28;20603;-64
2022/12/03 06:10:59;;;;;;;34.50;19.53;;;;;;;;;;5041545;28;23162;-63
2022/12/03 06:13:26;;;;;;;36.13;19.23;;;;;;;;;;5025517;28;20316;-61
2022/12/03 06:15:54;;;;;;;37.03;19.60;;;;;;;;;;5048291;28;20233;-63
2022/12/03 06:18:21;;;;;;;41.60;20.70;;;;;;;;;;5041110;28;20216;-63
2022/12/03 06:20:49;;;;;;;55.00;20.43;;;;;;;;;;5028182;28;20224;-62
2022/12/03 06:23:16;;;;;;;33.90;17.60;;;;;;;;;;5028655;28;20320;-62
2022/12/03 06:25:44;;;;;;;62.00;19.13;;;;;;;;;;5025105;28;20263;-61
2022/12/03 06:28:11;;;;;;;50.40;17.40;;;;;;;;;;5027609;28;20242;-62
2022/12/03 06:30:38;;;;;;;64.37;17.33;;;;;;;;;;5042543;28;20340;-64
2022/12/03 06:33:06;;;;;;;41.10;16.67;;;;;;;;;;5045025;28;20312;-63
2022/12/03 06:35:33;;;;;;;43.37;17.53;;;;;;;;;;5039051;28;20229;-63
2022/12/03 06:38:00;;;;;;;33.77;17.43;;;;;;;;;;5021339;28;20209;-62
2022/12/03 06:40:28;;;;;;;40.53;17.63;;;;;;;;;;5025272;28;20214;-62
2022/12/03 06:42:55;;;;;;;32.93;16.83;;;;;;;;;;5031829;28;21617;-62
2022/12/03 06:45:23;;;;;;;43.00;18.83;;;;;;;;;;5040334;28;20809;-62
2022/12/03 06:47:50;;;;;;;31.87;16.53;;;;;;;;;;5036448;28;20756;-62
2022/12/03 06:50:18;;;;;;;36.97;17.13;;;;;;;;;;5032959;28;20296;-65
2022/12/03 06:52:45;;;;;;;36.20;16.23;;;;;;;;;;5055619;28;20289;-63
2022/12/03 06:55:12;;;;;;;36.57;17.03;;;;;;;;;;5037324;28;20758;-62
2022/12/03 06:57:40;;;;;;;39.03;16.47;;;;;;;;;;5044109;28;20430;-61
2022/12/03 07:00:07;;;;;;;37.27;17.50;;;;;;;;;;5061710;28;20225;-62
2022/12/03 07:02:35;;;;;;;39.60;18.37;;;;;;;;;;5036903;28;20609;-64
2022/12/03 07:05:03;;;;;;;58.30;22.97;;;;;;;;;;5043479;28;20217;-62
2022/12/03 07:07:30;;;;;;;46.80;22.20;;;;;;;;;;5038870;28;20301;-62
2022/12/03 07:09:58;;;;;;;241.23;34.70;;;;;;;;;;5059655;28;20239;-62
2022/12/03 07:12:25;;;;;;;54.63;23.27;;;;;;;;;;5040189;28;20217;-62
2022/12/03 07:14:52;;;;;;;45.23;18.97;;;;;;;;;;5062348;28;20225;-64
2022/12/03 07:17:20;;;;;;;146.57;20.37;;;;;;;;;;5045019;28;20209;-62
2022/12/03 07:19:47;;;;;;;40.30;19.23;;;;;;;;;;5042738;28;20209;-62
2022/12/03 07:22:15;;;;;;;48.73;18.60;;;;;;;;;;5033904;28;20213;-63
2022/12/03 07:24:42;;;;;;;37.80;17.93;;;;;;;;;;5048591;28;20229;-62
2022/12/03 07:27:09;;;;;;;43.20;18.50;;;;;;;;;;5066134;28;20263;-62
2022/12/03 07:29:37;;;;;;;38.23;17.40;;;;;;;;;;5046353;28;20226;-62
2022/12/03 07:32:04;;;;;;;85.67;17.37;;;;;;;;;;5058581;28;21112;-64
2022/12/03 07:34:32;;;;;;;50.27;16.33;;;;;;;;;;5047759;28;20222;-61
2022/12/03 07:36:59;;;;;;;44.53;15.37;;;;;;;;;;5068354;28;20703;-62
2022/12/03 07:39:26;;;;;;;37.43;16.57;;;;;;;;;;5044973;28;20297;-62
2022/12/03 07:41:53;;;;;;;60.30;16.20;;;;;;;;;;5045753;28;20296;-64
2022/12/03 07:44:21;;;;;;;57.33;16.43;;;;;;;;;;5040364;28;20229;-63
2022/12/03 07:46:48;;;;;;;27.17;14.47;;;;;;;;;;5043523;28;20251;-63
2022/12/03 07:49:16;;;;;;;36.57;15.83;;;;;;;;;;5042332;28;20226;-63
2022/12/03 07:51:52;;;;;;;36.27;16.67;;;;;;;;;;5058880;28;20233;-63
2022/12/03 07:54:23;;;;;;;72.17;14.83;;;;;;;;;;5068778;28;20768;-63
2022/12/03 07:56:50;;;;;;;40.00;13.53;;;;;;;;;;5043790;28;20255;-64
2022/12/03 07:59:24;;;;;;;32.00;14.23;;;;;;;;;;5050853;28;20206;-63
2022/12/03 08:01:51;;;;;;;27.17;12.80;;;;;;;;;;5039585;28;20248;-64
2022/12/03 08:04:20;;;;;;;26.20;14.73;;;;;;;;;;5044933;28;20233;-62
2022/12/03 08:06:47;;;;;;;50.50;13.93;;;;;;;;;;5046480;28;20255;-64
2022/12/03 08:09:15;;;;;;;42.53;14.43;;;;;;;;;;5065213;28;20312;-63
2022/12/03 08:11:44;;;;;;;27.00;13.50;;;;;;;;;;5034838;28;21822;-63
2022/12/03 08:14:12;;;;;;;52.47;13.43;;;;;;;;;;5053335;28;20220;-64
2022/12/03 08:16:40;;;;;;;24.87;12.33;;;;;;;;;;5052398;28;20316;-64
2022/12/03 08:19:09;;;;;;;36.23;14.53;;;;;;;;;;5027006;28;20213;-64
2022/12/03 08:21:37;;;;;;;28.83;12.90;;;;;;;;;;5020453;28;20227;-64
2022/12/03 08:24:15;;;;;;;20.53;11.33;;;;;;;;;;5027816;28;20399;-64
2022/12/03 08:26:44;;;;;;;26.10;11.23;;;;;;;;;;5026351;28;20212;-64
2022/12/03 08:29:13;;;;;;;52.17;13.07;;;;;;;;;;5025551;28;20298;-63
2022/12/03 08:31:41;;;;;;;23.60;11.27;;;;;;;;;;5031773;28;20285;-63
2022/12/03 08:34:11;;;;;;;24.00;11.87;;;;;;;;;;5055181;28;20284;-63
2022/12/03 08:36:39;;;;;;;23.50;12.47;;;;;;;;;;5035678;28;20299;-63
2022/12/03 08:39:21;;;;;;;26.60;13.27;;;;;;;;;;5057453;28;20328;-64
2022/12/03 08:45:17;;;;;;;61.07;14.43;;;;;;;;;;5036297;28;20320;-63
2022/12/03 08:47:45;;;;;;;45.90;12.63;;;;;;;;;;5048002;28;20269;-64
2022/12/03 08:50:31;;;;;;;26.40;13.07;;;;;;;;;;5053829;28;20309;-64
2022/12/03 08:53:25;;;;;;;41.30;12.23;;;;;;;;;;5033913;28;20207;-64
2022/12/03 08:55:53;;;;;;;24.60;12.63;;;;;;;;;;5042069;28;20198;-63
2022/12/03 08:58:39;;;;;;;41.17;13.40;;;;;;;;;;5030303;28;20735;-63
2022/12/03 09:01:12;;;;;;;37.43;11.87;;;;;;;;;;5027764;28;20405;-63
2022/12/03 09:03:51;;;;;;;27.80;12.90;;;;;;;;;;5026315;28;20707;-63
2022/12/03 09:06:18;;;;;;;23.87;13.03;;;;;;;;;;5026615;28;20202;-62
2022/12/03 09:08:45;;;;;;;39.93;12.77;;;;;;;;;;5033046;28;20225;-63
2022/12/03 09:11:13;;;;;;;25.60;14.00;;;;;;;;;;5047286;28;20279;-63
2022/12/03 09:13:41;;;;;;;31.03;13.67;;;;;;;;;;5041418;28;20248;-63
2022/12/03 09:16:08;;;;;;;25.90;13.83;;;;;;;;;;5065982;28;20205;-64
2022/12/03 09:18:35;;;;;;;25.97;13.07;;;;;;;;;;5053746;28;20205;-62
2022/12/03 09:21:08;;;;;;;41.13;13.60;;;;;;;;;;5031559;28;20629;-63
2022/12/03 09:23:36;;;;;;;31.13;13.57;;;;;;;;;;5060429;28;20244;-63
2022/12/03 09:26:03;;;;;;;35.33;13.63;;;;;;;;;;5045458;28;20241;-63
2022/12/03 09:28:30;;;;;;;39.03;13.70;;;;;;;;;;5065586;28;20710;-63
2022/12/03 09:30:57;;;;;;;48.43;13.17;;;;;;;;;;5047851;28;20330;-64
2022/12/03 09:33:25;;;;;;;43.73;14.10;;;;;;;;;;5039746;28;20763;-63
2022/12/03 09:35:52;;;;;;;28.90;13.30;;;;;;;;;;5050755;28;20219;-64
2022/12/03 09:38:20;;;;;;;35.77;16.27;;;;;;;;;;5026446;28;20206;-63
2022/12/03 09:40:47;;;;;;;28.53;13.43;;;;;;;;;;5023063;28;20297;-63
2022/12/03 09:43:15;;;;;;;55.20;12.60;;;;;;;;;;5024122;28;20673;-62
2022/12/03 09:45:44;;;;;;;36.80;13.93;;;;;;;;;;5023065;28;20217;-62
2022/12/03 09:48:13;;;;;;;42.20;14.83;;;;;;;;;;5027970;28;20263;-63
2022/12/03 09:50:41;;;;;;;57.43;13.40;;;;;;;;;;5020448;28;20324;-63
2022/12/03 09:53:12;;;;;;;37.37;12.83;;;;;;;;;;5030028;28;20240;-62
2022/12/03 09:55:40;;;;;;;43.57;16.10;;;;;;;;;;5023666;28;20212;-63
2022/12/03 09:58:14;;;;;;;45.67;14.17;;;;;;;;;;5020341;28;20207;-63
2022/12/03 10:00:43;;;;;;;40.83;14.00;;;;;;;;;;5038973;28;20212;-62
2022/12/03 10:03:12;;;;;;;50.00;12.87;;;;;;;;;;5014363;28;20232;-62
2022/12/03 10:05:39;;;;;;;46.93;15.03;;;;;;;;;;5041127;28;20312;-63
2022/12/03 10:08:19;;;;;;;207.93;18.20;;;;;;;;;;5016966;28;20208;-63
2022/12/03 10:10:48;;;;;;;54.87;14.53;;;;;;;;;;5035455;28;20232;-64
2022/12/03 10:13:36;;;;;;;43.60;13.63;;;;;;;;;;5055011;28;20286;-63
2022/12/03 10:16:03;;;;;;;27.43;13.37;;;;;;;;;;5064186;28;20194;-64
2022/12/03 10:18:34;;;;;;;93.53;16.23;;;;;;;;;;5065362;28;20205;-64
2022/12/03 10:21:16;;;;;;;39.87;14.50;;;;;;;;;;5051473;28;20259;-63
2022/12/03 10:23:45;;;;;;;30.77;14.97;;;;;;;;;;5023587;28;20361;-63
2022/12/03 10:26:18;;;;;;;47.13;15.23;;;;;;;;;;5033203;28;20206;-63
2022/12/03 10:28:46;;;;;;;25.60;14.70;;;;;;;;;;5038785;28;20206;-63
2022/12/03 10:31:14;;;;;;;30.37;15.27;;;;;;;;;;5043558;28;20228;-63
2022/12/03 10:33:43;;;;;;;27.20;14.77;;;;;;;;;;5039594;28;20225;-64
2022/12/03 10:36:24;;;;;;;27.50;14.40;;;;;;;;;;5045226;28;20234;-63
2022/12/03 10:39:12;;;;;;;25.03;14.23;;;;;;;;;;5044493;28;20344;-64
2022/12/03 10:41:40;;;;;;;30.47;14.10;;;;;;;;;;5038063;28;20220;-63
2022/12/03 10:44:16;;;;;;;21.83;12.33;;;;;;;;;;5042498;28;20340;-63
2022/12/03 10:46:44;;;;;;;40.07;12.63;;;;;;;;;;5047426;28;20655;-63
2022/12/03 10:49:20;;;;;;;24.03;11.47;;;;;;;;;;5039980;28;20333;-63
2022/12/03 10:51:48;;;;;;;20.97;11.93;;;;;;;;;;5036677;28;20745;-63
2022/12/03 10:54:22;;;;;;;20.97;11.93;;;;;;;;;;5062296;28;20255;-63
2022/12/03 10:56:51;;;;;;;23.63;12.97;;;;;;;;;;5059499;28;20746;-63
2022/12/03 10:59:20;;;;;;;26.50;13.40;;;;;;;;;;5037042;28;20248;-63
2022/12/03 11:01:48;;;;;;;28.27;14.70;;;;;;;;;;5053710;28;20318;-63
2022/12/03 11:04:36;;;;;;;38.27;20.80;;;;;;;;;;5056460;28;20237;-63
2022/12/03 11:07:11;;;;;;;28.07;14.23;;;;;;;;;;5042819;28;20641;-63
2022/12/03 11:09:39;;;;;;;27.77;15.23;;;;;;;;;;5050008;28;20812;-63
2022/12/03 11:12:07;;;;;;;55.73;31.87;;;;;;;;;;5046558;28;20197;-63
2022/12/03 11:14:50;;;;;;;50.73;28.50;;;;;;;;;;5055912;28;20743;-63
2022/12/03 11:17:37;;;;;;;42.43;22.67;;;;;;;;;;5036718;28;20214;-63
2022/12/03 11:20:05;;;;;;;24.03;11.60;;;;;;;;;;5055199;28;20205;-63
2022/12/03 11:22:40;;;;;;;21.77;11.30;;;;;;;;;;5031668;28;20345;-63
2022/12/03 11:25:26;;;;;;;20.63;12.20;;;;;;;;;;5057827;28;20855;-62
2022/12/03 11:28:12;;;;;;;24.60;13.90;;;;;;;;;;5038803;28;20209;-64
2022/12/03 11:30:52;;;;;;;22.10;11.10;;;;;;;;;;5035933;28;20227;-64
2022/12/03 11:33:27;;;;;;;28.50;12.53;;;;;;;;;;5033463;28;20347;-62
2022/12/03 11:36:04;;;;;;;20.87;11.10;;;;;;;;;;5039315;28;20245;-63
2022/12/03 11:38:40;;;;;;;23.13;11.27;;;;;;;;;;5039262;28;20229;-63
2022/12/03 11:41:08;;;;;;;21.10;11.43;;;;;;;;;;5044461;28;20270;-64
2022/12/03 11:43:56;;;;;;;19.50;10.83;;;;;;;;;;5044296;28;20259;-64
2022/12/03 11:46:23;;;;;;;19.73;11.23;;;;;;;;;;5047256;28;20639;-62
2022/12/03 11:48:52;;;;;;;23.93;13.30;;;;;;;;;;5021761;28;20206;-64
2022/12/03 11:51:21;;;;;;;21.33;12.33;;;;;;;;;;5022376;28;20666;-63
2022/12/03 11:53:50;;;;;;;23.27;13.53;;;;;;;;;;5025878;28;21307;-63
2022/12/03 11:56:24;;;;;;;19.93;11.33;;;;;;;;;;5044679;28;20239;-63
2022/12/03 11:58:58;;;;;;;26.37;14.03;;;;;;;;;;5043045;28;20289;-63
2022/12/03 12:01:52;;;;;;;56.97;13.73;;;;;;;;;;5027552;28;20345;-63
2022/12/03 12:04:28;;;;;;;39.57;13.33;;;;;;;;;;5032805;28;20677;-64
2022/12/03 12:06:55;;;;;;;28.83;12.90;;;;;;;;;;5030531;28;20566;-63
2022/12/03 12:09:41;;;;;;;27.63;13.63;;;;;;;;;;5042336;28;20666;-63
2022/12/03 12:12:28;;;;;;;27.07;14.70;;;;;;;;;;5040884;28;20259;-62
2022/12/03 12:14:55;;;;;;;30.47;15.10;;;;;;;;;;5037522;28;20249;-63
2022/12/03 12:17:30;;;;;;;33.57;14.47;;;;;;;;;;5039649;28;20690;-63
2022/12/03 12:20:17;;;;;;;29.43;14.23;;;;;;;;;;5034666;28;20209;-63
2022/12/03 12:22:44;;;;;;;26.63;13.87;;;;;;;;;;5047467;28;20286;-63
2022/12/03 12:25:31;;;;;;;30.70;14.10;;;;;;;;;;5059074;28;20229;-64
2022/12/03 12:27:58;;;;;;;28.20;14.57;;;;;;;;;;5048779;28;20213;-64
2022/12/03 12:30:26;;;;;;;54.53;14.83;;;;;;;;;;5047866;28;20271;-63
2022/12/03 12:33:06;;;;;;;35.60;15.77;;;;;;;;;;5048839;28;20659;-63
2022/12/03 12:35:35;;;;;;;33.70;17.20;;;;;;;;;;5050353;28;20202;-63
2022/12/03 12:38:06;;;;;;;34.50;15.73;;;;;;;;;;5024899;28;20205;-63
2022/12/03 12:40:39;;;;;;;36.03;18.17;;;;;;;;;;5036364;28;20253;-64
2022/12/03 12:43:15;;;;;;;45.37;18.20;;;;;;;;;;5032497;28;21917;-63
2022/12/03 12:45:50;;;;;;;38.53;19.30;;;;;;;;;;5053091;28;20205;-64
2022/12/03 12:48:21;;;;;;;42.67;20.73;;;;;;;;;;5034210;28;20204;-64
2022/12/03 12:50:57;;;;;;;42.37;21.27;;;;;;;;;;5044311;28;20371;-63
2022/12/03 12:53:30;;;;;;;53.83;24.03;;;;;;;;;;5057697;28;20327;-63
2022/12/03 12:55:59;;;;;;;43.47;21.20;;;;;;;;;;5039444;28;20588;-63
2022/12/03 12:58:29;;;;;;;39.40;19.33;;;;;;;;;;5036272;28;20292;-63
2022/12/03 13:00:58;;;;;;;42.50;20.87;;;;;;;;;;5057187;28;20230;-63
2022/12/03 13:03:32;;;;;;;42.63;20.73;;;;;;;;;;5036681;28;20356;-63
2022/12/03 13:06:01;;;;;;;46.03;24.13;;;;;;;;;;5030976;28;20208;-63
2022/12/03 13:08:33;;;;;;;40.37;21.03;;;;;;;;;;5049494;28;20675;-63
2022/12/03 13:11:01;;;;;;;40.40;19.47;;;;;;;;;;5036726;28;20279;-63
2022/12/03 13:13:47;;;;;;;35.03;19.53;;;;;;;;;;5056441;28;20229;-62
2022/12/03 13:16:24;;;;;;;41.50;21.37;;;;;;;;;;5050420;28;20273;-63
2022/12/03 13:18:56;;;;;;;43.20;22.63;;;;;;;;;;5037422;28;20213;-63
2022/12/03 13:21:36;;;;;;;47.60;21.83;;;;;;;;;;5055733;28;20202;-63
2022/12/03 13:24:12;;;;;;;53.60;19.83;;;;;;;;;;5038666;28;20702;-62
2022/12/03 13:26:39;;;;;;;44.30;17.93;;;;;;;;;;5054327;28;20209;-62
2022/12/03 13:29:11;;;;;;;38.77;21.13;;;;;;;;;;5064687;28;20205;-63
2022/12/03 13:31:39;;;;;;;61.20;19.67;;;;;;;;;;5032530;28;20766;-63
2022/12/03 13:34:14;;;;;;;35.37;18.07;;;;;;;;;;5059104;28;20237;-62
2022/12/03 13:36:43;;;;;;;33.87;18.07;;;;;;;;;;5035904;28;20243;-62
2022/12/03 13:39:34;;;;;;;37.87;19.57;;;;;;;;;;5053075;28;20297;-62
2022/12/03 13:44:53;;;;;;;40.20;17.60;;;;;;;;;;5057719;28;20320;-63
2022/12/03 13:47:22;;;;;;;40.50;18.00;;;;;;;;;;5044824;28;20202;-63
2022/12/03 13:49:55;;;;;;;38.07;19.40;;;;;;;;;;5048367;28;20283;-63
2022/12/03 13:52:26;;;;;;;43.40;20.00;;;;;;;;;;5062881;28;20221;-63
2022/12/03 13:54:55;;;;;;;54.23;19.40;;;;;;;;;;5045763;28;20225;-63
2022/12/03 13:57:22;;;;;;;45.97;22.13;;;;;;;;;;5046092;28;20293;-63
2022/12/03 13:59:50;;;;;;;48.10;21.13;;;;;;;;;;5048047;28;20231;-63
2022/12/03 14:02:18;;;;;;;42.87;21.07;;;;;;;;;;5027739;28;20214;-62
2022/12/03 14:04:45;;;;;;;96.97;25.10;;;;;;;;;;5025175;28;20605;-62
2022/12/03 14:07:13;;;;;;;44.93;21.50;;;;;;;;;;5042795;28;20305;-61
2022/12/03 14:09:41;;;;;;;54.87;21.60;;;;;;;;;;5045730;28;20220;-62
2022/12/03 14:12:32;;;;;;;46.80;22.80;;;;;;;;;;5026113;28;20590;-62
2022/12/03 14:15:01;;;;;;;42.83;20.13;;;;;;;;;;5030853;28;20225;-62
2022/12/03 14:17:29;;;;;;;40.73;19.83;;;;;;;;;;5032744;28;20198;-62
2022/12/03 14:19:59;;;;;;;46.73;20.70;;;;;;;;;;5051322;28;20206;-62
2022/12/03 14:22:27;;;;;;;52.40;23.20;;;;;;;;;;5062830;28;20202;-64
2022/12/03 14:24:54;;;;;;;65.43;20.63;;;;;;;;;;5052530;28;20233;-62
2022/12/03 14:27:23;;;;;;;47.00;19.77;;;;;;;;;;5041974;28;20229;-64
2022/12/03 14:29:50;;;;;;;33.93;18.77;;;;;;;;;;5060430;28;20779;-63
2022/12/03 14:32:19;;;;;;;64.20;19.27;;;;;;;;;;5050371;28;20206;-63
2022/12/03 14:34:46;;;;;;;35.10;18.50;;;;;;;;;;5052562;28;20234;-64
2022/12/03 14:37:14;;;;;;;29.30;17.13;;;;;;;;;;5033897;28;20304;-63
2022/12/03 14:39:41;;;;;;;39.40;17.70;;;;;;;;;;5039498;28;20834;-63
2022/12/03 14:42:12;;;;;;;62.43;18.57;;;;;;;;;;5047220;28;20297;-63
2022/12/03 14:44:40;;;;;;;44.93;18.27;;;;;;;;;;5043120;28;20228;-63
2022/12/03 14:47:08;;;;;;;41.33;19.43;;;;;;;;;;5050497;28;20304;-63
2022/12/03 14:49:35;;;;;;;49.50;19.87;;;;;;;;;;5052536;28;20202;-63
2022/12/03 14:52:03;;;;;;;38.33;19.80;;;;;;;;;;5032350;28;20328;-63
2022/12/03 14:54:33;;;;;;;39.87;19.07;;;;;;;;;;5029541;28;20222;-63
2022/12/03 14:57:01;;;;;;;36.90;18.97;;;;;;;;;;5046917;28;20313;-61
2022/12/03 14:59:28;;;;;;;41.33;19.30;;;;;;;;;;5028793;28;20292;-63
2022/12/03 15:01:56;;;;;;;38.07;19.03;;;;;;;;;;5031710;28;20209;-64
2022/12/03 15:04:25;;;;;;;34.43;17.90;;;;;;;;;;5027052;28;20237;-62